createdAt,value
2022-09-12T00:01:31.668Z,14.20
2022-09-12T00:04:02.451Z,14.20
2022-09-12T00:06:33.760Z,14.20
2022-09-12T00:09:09.044Z,14.20
2022-09-12T00:11:38.647Z,14.20
2022-09-12T00:14:09.810Z,14.20
2022-09-12T00:16:38.983Z,14.20
2022-09-12T00:19:08.819Z,14.20
2022-09-12T00:21:39.939Z,14.20
2022-09-12T00:24:11.348Z,14.00
2022-09-12T00:26:39.464Z,14.10
2022-09-12T00:29:07.794Z,14.10
2022-09-12T00:31:36.340Z,14.10
2022-09-12T00:34:04.463Z,14.10
2022-09-12T00:36:33.259Z,14.10
2022-09-12T00:39:01.682Z,14.10
2022-09-12T00:41:35.638Z,14.10
2022-09-12T00:44:48.173Z,14.00
2022-09-12T00:47:24.782Z,14.00
2022-09-12T00:50:01.966Z,13.90
2022-09-12T00:52:36.142Z,13.90
2022-09-12T00:55:11.816Z,13.90
2022-09-12T00:57:49.531Z,13.80
2022-09-12T01:00:21.829Z,13.80
2022-09-12T01:02:55.978Z,13.80
2022-09-12T01:05:26.722Z,13.80
2022-09-12T01:07:58.035Z,13.80
2022-09-12T01:10:26.319Z,13.80
2022-09-12T01:12:55.984Z,13.70
2022-09-12T01:15:24.368Z,13.60
2022-09-12T01:18:11.113Z,13.60
2022-09-12T01:21:21.431Z,13.50
2022-09-12T01:24:51.774Z,13.40
2022-09-12T01:27:48.017Z,13.30
2022-09-12T01:30:26.334Z,13.30
2022-09-12T01:33:33.057Z,13.20
2022-09-12T01:36:30.465Z,13.20
2022-09-12T01:39:04.231Z,13.10
2022-09-12T01:41:46.884Z,13.00
2022-09-12T01:44:27.940Z,12.90
2022-09-12T01:47:08.707Z,12.90
2022-09-12T01:49:47.364Z,12.90
2022-09-12T01:52:24.049Z,12.90
2022-09-12T01:54:58.434Z,12.90
2022-09-12T01:57:36.411Z,12.90
2022-09-12T02:00:11.363Z,12.90
2022-09-12T02:02:48.491Z,12.90
2022-09-12T02:05:26.221Z,12.80
2022-09-12T02:08:00.335Z,12.70
2022-09-12T02:10:35.538Z,12.60
2022-09-12T02:13:14.233Z,12.60
2022-09-12T02:15:50.788Z,12.50
2022-09-12T02:18:22.397Z,12.40
2022-09-12T02:20:52.994Z,12.40
2022-09-12T02:23:27.561Z,12.30
2022-09-12T02:26:00.169Z,12.30
2022-09-12T02:28:33.003Z,12.20
2022-09-12T02:31:14.640Z,12.20
2022-09-12T02:33:53.211Z,12.30
2022-09-12T02:36:38.077Z,12.40
2022-09-12T02:39:06.407Z,12.50
2022-09-12T02:41:34.685Z,12.50
2022-09-12T02:44:04.059Z,12.50
2022-09-12T02:46:40.045Z,12.30
2022-09-12T02:49:10.214Z,12.30
2022-09-12T02:51:39.359Z,12.40
2022-09-12T02:54:09.207Z,12.50
2022-09-12T02:56:37.586Z,12.60
2022-09-12T02:59:12.677Z,12.60
2022-09-12T03:02:18.709Z,12.60
2022-09-12T03:05:17.259Z,12.80
2022-09-12T03:08:15.827Z,12.70
2022-09-12T03:11:07.847Z,12.80
2022-09-12T03:13:51.574Z,12.80
2022-09-12T03:16:34.484Z,12.80
2022-09-12T03:19:10.912Z,12.80
2022-09-12T03:22:04.603Z,12.80
2022-09-12T03:24:38.472Z,12.80
2022-09-12T03:27:16.365Z,12.90
2022-09-12T03:29:48.210Z,12.90
2022-09-12T03:32:16.997Z,12.90
2022-09-12T03:34:45.273Z,12.90
2022-09-12T03:37:14.746Z,12.90
2022-09-12T03:39:43.100Z,12.80
2022-09-12T03:42:11.392Z,12.80
2022-09-12T03:44:39.369Z,12.70
2022-09-12T03:47:11.517Z,12.60
2022-09-12T03:49:42.076Z,12.60
2022-09-12T03:52:10.342Z,12.60
2022-09-12T03:54:39.744Z,12.50
2022-09-12T03:57:08.011Z,12.50
2022-09-12T03:59:36.039Z,12.40
2022-09-12T04:02:04.585Z,12.30
2022-09-12T04:04:33.123Z,12.30
2022-09-12T04:07:01.132Z,12.30
2022-09-12T04:09:29.173Z,12.20
2022-09-12T04:11:58.662Z,12.10
2022-09-12T04:14:26.694Z,12.00
2022-09-12T04:16:54.751Z,11.90
2022-09-12T04:19:23.549Z,11.90
2022-09-12T04:21:51.880Z,11.90
2022-09-12T04:24:22.957Z,11.90
2022-09-12T04:26:51.196Z,11.90
2022-09-12T04:29:21.226Z,11.90
2022-09-12T04:31:50.387Z,11.90
2022-09-12T04:34:19.600Z,11.90
2022-09-12T04:36:48.267Z,11.80
2022-09-12T04:39:16.951Z,11.80
2022-09-12T04:41:45.083Z,11.90
2022-09-12T04:44:15.633Z,12.00
2022-09-12T04:46:47.942Z,12.10
2022-09-12T04:49:19.308Z,12.20
2022-09-12T04:51:47.703Z,12.20
2022-09-12T04:54:19.709Z,12.30
2022-09-12T04:56:50.544Z,12.30
2022-09-12T04:59:21.262Z,12.40
2022-09-12T05:01:51.342Z,12.40
2022-09-12T05:04:19.633Z,12.50
2022-09-12T05:06:48.171Z,12.50
2022-09-12T05:09:17.001Z,12.50
2022-09-12T05:12:03.657Z,12.60
2022-09-12T05:14:33.533Z,12.70
2022-09-12T05:17:03.270Z,12.70
2022-09-12T05:19:33.025Z,12.80
2022-09-12T05:22:01.191Z,12.80
2022-09-12T05:24:30.038Z,12.80
2022-09-12T05:26:58.067Z,12.80
2022-09-12T05:29:26.432Z,12.90
2022-09-12T05:31:54.726Z,12.90
2022-09-12T05:34:24.456Z,13.00
2022-09-12T05:36:52.537Z,13.00
2022-09-12T05:39:20.631Z,13.10
2022-09-12T05:41:48.922Z,13.10
2022-09-12T05:44:17.734Z,13.10
2022-09-12T05:46:48.559Z,13.10
2022-09-12T05:49:16.751Z,13.20
2022-09-12T05:51:47.325Z,13.30
2022-09-12T05:54:25.542Z,13.40
2022-09-12T05:56:55.267Z,13.50
2022-09-12T05:59:24.062Z,13.60
2022-09-12T06:01:52.355Z,13.70
2022-09-12T06:04:20.345Z,13.80
2022-09-12T06:06:50.164Z,13.90
2022-09-12T06:09:19.294Z,14.10
2022-09-12T06:11:48.157Z,14.20
2022-09-12T06:14:17.892Z,14.20
2022-09-12T06:16:47.241Z,14.30
2022-09-12T06:19:17.942Z,14.40
2022-09-12T06:21:47.548Z,14.50
2022-09-12T06:24:18.565Z,14.60
2022-09-12T06:26:47.413Z,14.70
2022-09-12T06:29:16.474Z,14.70
2022-09-12T06:31:45.740Z,14.80
2022-09-12T06:34:16.876Z,15.00
2022-09-12T06:36:47.413Z,15.30
2022-09-12T06:39:19.356Z,15.40
2022-09-12T06:41:48.341Z,15.70
2022-09-12T06:44:20.028Z,15.90
2022-09-12T06:46:48.830Z,16.00
2022-09-12T06:49:17.553Z,16.10
2022-09-12T06:51:45.910Z,16.30
2022-09-12T06:54:17.891Z,16.20
2022-09-12T06:56:46.519Z,16.10
2022-09-12T06:59:14.568Z,16.00
2022-09-12T07:01:42.859Z,15.90
2022-09-12T07:04:12.480Z,15.80
2022-09-12T07:06:44.027Z,15.40
2022-09-12T07:09:16.461Z,15.50
2022-09-12T07:11:47.462Z,15.50
2022-09-12T07:14:16.186Z,15.40
2022-09-12T07:16:44.688Z,15.50
2022-09-12T07:19:13.050Z,15.70
2022-09-12T07:21:42.628Z,15.80
2022-09-12T07:24:11.739Z,15.90
2022-09-12T07:26:42.003Z,16.10
2022-09-12T07:32:06.697Z,16.40
2022-09-12T07:34:35.833Z,16.50
2022-09-12T07:37:03.974Z,16.70
2022-09-12T07:39:32.373Z,16.80
2022-09-12T07:42:00.935Z,16.80
2022-09-12T07:44:30.393Z,16.90
2022-09-12T07:46:58.383Z,17.30
2022-09-12T07:49:26.421Z,17.40
2022-09-12T07:51:54.432Z,17.40
2022-09-12T07:54:22.769Z,17.20
2022-09-12T07:56:51.043Z,17.40
2022-09-12T07:59:41.466Z,17.20
2022-09-12T08:02:17.057Z,17.10
2022-09-12T08:04:47.535Z,16.90
2022-09-12T08:07:16.283Z,17.00
2022-09-12T08:09:44.435Z,17.00
2022-09-12T08:12:12.576Z,17.00
2022-09-12T08:14:40.822Z,17.00
2022-09-12T08:17:10.748Z,17.30
2022-09-12T08:19:39.444Z,17.20
2022-09-12T08:22:08.278Z,17.10
2022-09-12T08:24:36.283Z,16.90
2022-09-12T08:27:04.837Z,16.70
2022-09-12T08:29:33.773Z,16.60
2022-09-12T08:32:01.970Z,16.60
2022-09-12T08:34:31.612Z,16.70
2022-09-12T08:36:59.765Z,16.90
2022-09-12T08:39:27.819Z,17.00
2022-09-12T08:42:03.408Z,17.20
2022-09-12T08:44:59.664Z,17.30
2022-09-12T08:47:33.571Z,17.30
2022-09-12T08:50:17.751Z,17.30
2022-09-12T08:52:58.556Z,17.30
2022-09-12T08:55:33.318Z,17.10
2022-09-12T08:58:08.218Z,17.10
2022-09-12T09:00:50.222Z,17.10
2022-09-12T09:04:05.915Z,17.10
2022-09-12T09:06:59.632Z,17.20
2022-09-12T09:09:48.747Z,17.30
2022-09-12T09:12:33.445Z,17.30
2022-09-12T09:15:34.316Z,17.60
2022-09-12T09:18:09.751Z,18.00
2022-09-12T09:20:46.672Z,18.10
2022-09-12T09:23:25.107Z,18.10
2022-09-12T09:25:59.363Z,18.30
2022-09-12T09:28:39.792Z,18.60
2022-09-12T09:31:16.252Z,18.40
2022-09-12T09:33:47.526Z,18.60
2022-09-12T09:36:23.917Z,18.90
2022-09-12T09:39:05.771Z,18.90
2022-09-12T09:41:50.957Z,18.90
2022-09-12T09:47:16.369Z,19.00
2022-09-12T09:49:44.509Z,18.60
2022-09-12T09:52:17.316Z,18.40
2022-09-12T09:54:57.444Z,18.50
2022-09-12T09:57:44.713Z,18.60
2022-09-12T10:00:38.457Z,19.00
2022-09-12T10:03:31.858Z,19.20
2022-09-12T10:06:03.821Z,19.30
2022-09-12T10:08:35.388Z,19.20
2022-09-12T10:11:07.867Z,19.20
2022-09-12T10:13:41.467Z,18.80
2022-09-12T10:16:22.713Z,18.50
2022-09-12T10:18:53.737Z,18.40
2022-09-12T10:21:33.164Z,18.30
2022-09-12T10:24:19.162Z,18.60
2022-09-12T10:26:56.935Z,18.80
2022-09-12T10:29:31.440Z,18.90
2022-09-12T10:32:04.658Z,19.30
2022-09-12T10:34:40.513Z,19.70
2022-09-12T10:37:11.987Z,19.70
2022-09-12T10:39:40.568Z,19.70
2022-09-12T10:42:20.330Z,19.50
2022-09-12T10:44:55.632Z,19.60
2022-09-12T10:47:31.868Z,19.00
2022-09-12T10:50:27.161Z,19.10
2022-09-12T10:52:56.203Z,19.10
2022-09-12T10:55:35.670Z,19.30
2022-09-12T10:58:42.396Z,19.40
2022-09-12T11:01:29.069Z,19.50
2022-09-12T11:04:28.249Z,19.70
2022-09-12T11:07:21.345Z,19.80
2022-09-12T11:10:01.208Z,19.80
2022-09-12T11:12:42.238Z,20.10
2022-09-12T11:15:36.584Z,20.70
2022-09-12T11:18:22.064Z,21.20
2022-09-12T11:21:21.995Z,21.30
2022-09-12T11:24:19.863Z,21.10
2022-09-12T11:27:09.002Z,21.20
2022-09-12T11:29:50.099Z,21.00
2022-09-12T11:33:05.551Z,21.60
2022-09-12T11:35:36.106Z,21.90
2022-09-12T11:38:30.065Z,21.90
2022-09-12T11:41:03.446Z,21.70
2022-09-12T11:43:41.051Z,21.60
2022-09-12T11:46:20.665Z,21.50
2022-09-12T11:48:58.990Z,21.20
2022-09-12T11:51:30.705Z,21.00
2022-09-12T11:54:15.071Z,20.70
2022-09-12T11:56:48.611Z,20.80
2022-09-12T11:59:33.091Z,20.70
2022-09-12T12:02:04.871Z,20.80
2022-09-12T12:04:46.230Z,21.20
2022-09-12T12:07:15.299Z,21.40
2022-09-12T12:09:51.969Z,21.80
2022-09-12T12:12:28.574Z,21.30
2022-09-12T12:14:59.006Z,21.20
2022-09-12T12:17:30.343Z,21.40
2022-09-12T12:20:07.470Z,21.40
2022-09-12T12:22:37.160Z,21.70
2022-09-12T12:25:29.620Z,22.00
2022-09-12T12:28:01.971Z,22.40
2022-09-12T12:31:05.667Z,22.60
2022-09-12T12:34:22.262Z,22.50
2022-09-12T12:36:51.711Z,22.80
2022-09-12T12:40:02.933Z,22.80
2022-09-12T12:43:31.848Z,22.70
2022-09-12T12:46:13.330Z,22.80
2022-09-12T12:49:11.770Z,22.70
2022-09-12T12:52:01.191Z,22.40
2022-09-12T12:54:58.152Z,22.50
2022-09-12T12:57:51.097Z,22.30
2022-09-12T13:00:34.558Z,22.70
2022-09-12T13:03:24.891Z,23.50
2022-09-12T13:06:04.527Z,23.70
2022-09-12T13:08:39.653Z,23.20
2022-09-12T13:11:12.932Z,22.70
2022-09-12T13:13:50.616Z,22.60
2022-09-12T13:16:32.949Z,22.50
2022-09-12T13:19:07.943Z,22.50
2022-09-12T13:21:36.392Z,23.20
2022-09-12T13:24:17.163Z,24.10
2022-09-12T13:26:48.692Z,24.40
2022-09-12T13:29:19.647Z,24.20
2022-09-12T13:31:52.681Z,24.10
2022-09-12T13:34:26.158Z,24.80
2022-09-12T13:37:30.319Z,24.80
2022-09-12T13:40:21.874Z,24.20
2022-09-12T13:42:54.360Z,23.80
2022-09-12T13:45:26.872Z,23.30
2022-09-12T13:48:01.907Z,23.20
2022-09-12T13:50:38.088Z,22.90
2022-09-12T13:53:12.148Z,23.00
2022-09-12T13:55:47.295Z,22.90
2022-09-12T13:58:22.837Z,22.70
2022-09-12T14:01:05.685Z,22.60
2022-09-12T14:03:59.000Z,22.60
2022-09-12T14:06:27.839Z,22.40
2022-09-12T14:09:00.181Z,22.10
2022-09-12T14:11:33.798Z,22.10
2022-09-12T14:14:08.188Z,22.50
2022-09-12T14:16:43.653Z,22.80
2022-09-12T14:19:16.326Z,23.20
2022-09-12T14:21:44.829Z,23.40
2022-09-12T14:24:15.119Z,23.60
2022-09-12T14:26:46.455Z,24.20
2022-09-12T14:29:17.810Z,24.80
2022-09-12T14:31:46.469Z,25.20
2022-09-12T14:34:18.152Z,25.50
2022-09-12T14:36:49.904Z,25.80
2022-09-12T14:39:30.609Z,25.80
2022-09-12T14:42:08.595Z,25.80
2022-09-12T14:44:37.813Z,25.50
2022-09-12T14:47:20.480Z,25.00
2022-09-12T14:49:52.030Z,25.10
2022-09-12T14:52:28.888Z,25.10
2022-09-12T14:55:00.311Z,25.00
2022-09-12T14:57:42.018Z,24.80
2022-09-12T15:00:23.935Z,24.70
2022-09-12T15:02:54.536Z,24.70
2022-09-12T15:05:27.726Z,24.90
2022-09-12T15:08:02.254Z,24.70
2022-09-12T15:10:33.038Z,24.80
2022-09-12T15:13:24.132Z,24.80
2022-09-12T15:15:54.939Z,24.50
2022-09-12T15:18:25.805Z,24.30
2022-09-12T15:21:02.828Z,24.10
2022-09-12T15:23:43.247Z,23.90
2022-09-12T15:26:15.320Z,23.90
2022-09-12T15:28:45.258Z,23.60
2022-09-12T15:31:25.180Z,23.20
2022-09-12T15:33:53.928Z,22.80
2022-09-12T15:36:24.374Z,22.50
2022-09-12T15:38:53.863Z,22.20
2022-09-12T15:41:24.234Z,21.80
2022-09-12T15:43:53.703Z,21.60
2022-09-12T15:46:22.117Z,21.50
2022-09-12T15:48:50.294Z,21.20
2022-09-12T15:51:20.889Z,20.90
2022-09-12T15:53:51.654Z,20.70
2022-09-12T15:56:22.980Z,20.50
2022-09-12T15:59:00.493Z,20.30
2022-09-12T16:01:30.080Z,20.20
2022-09-12T16:03:58.570Z,20.20
2022-09-12T16:06:27.833Z,20.10
2022-09-12T16:08:56.235Z,20.00
2022-09-12T16:11:27.864Z,19.90
2022-09-12T16:13:58.088Z,19.80
2022-09-12T16:16:26.262Z,19.70
2022-09-12T16:18:54.347Z,19.50
2022-09-12T16:21:22.674Z,19.50
2022-09-12T16:23:50.840Z,19.50
2022-09-12T16:26:19.442Z,19.40
2022-09-12T16:28:47.817Z,19.40
2022-09-12T16:31:19.726Z,19.30
2022-09-12T16:33:48.295Z,19.20
2022-09-12T16:36:20.623Z,19.20
2022-09-12T16:38:51.447Z,19.10
2022-09-12T16:41:22.094Z,19.10
2022-09-12T16:43:50.309Z,18.90
2022-09-12T16:46:22.857Z,18.90
2022-09-12T16:48:53.913Z,18.80
2022-09-12T16:51:26.130Z,18.70
2022-09-12T16:53:56.784Z,18.70
2022-09-12T16:56:26.300Z,18.60
2022-09-12T16:58:54.834Z,18.50
2022-09-12T17:01:26.813Z,18.30
2022-09-12T17:03:56.499Z,18.40
2022-09-12T17:06:27.172Z,18.20
2022-09-12T17:09:00.698Z,18.20
2022-09-12T17:11:32.352Z,18.10
2022-09-12T17:14:05.312Z,17.90
2022-09-12T17:16:37.412Z,17.80
2022-09-12T17:19:07.852Z,17.70
2022-09-12T17:21:36.666Z,17.70
2022-09-12T17:24:05.915Z,17.60
2022-09-12T17:26:34.241Z,17.50
2022-09-12T17:29:03.184Z,17.50
2022-09-12T17:31:32.249Z,17.40
2022-09-12T17:34:03.121Z,17.30
2022-09-12T17:36:32.200Z,17.20
2022-09-12T17:39:02.356Z,17.20
2022-09-12T17:41:32.837Z,17.10
2022-09-12T17:44:03.653Z,17.10
2022-09-12T17:46:35.664Z,17.00
2022-09-12T17:49:08.048Z,16.90
2022-09-12T17:51:36.677Z,16.90
2022-09-12T17:54:08.405Z,16.90
2022-09-12T17:56:37.667Z,16.80
2022-09-12T17:59:08.480Z,16.70
2022-09-12T18:01:54.675Z,16.60
2022-09-12T18:04:24.409Z,16.60
2022-09-12T18:06:52.774Z,16.50
2022-09-12T18:09:25.017Z,16.60
2022-09-12T18:11:54.197Z,16.40
2022-09-12T18:14:23.332Z,16.40
2022-09-12T18:16:52.414Z,16.30
2022-09-12T18:19:20.730Z,16.20
2022-09-12T18:21:50.527Z,16.20
2022-09-12T18:24:18.631Z,16.10
2022-09-12T18:26:46.965Z,16.10
2022-09-12T18:29:17.268Z,16.10
2022-09-12T18:31:47.135Z,16.10
2022-09-12T18:34:16.462Z,16.00
2022-09-12T18:36:47.336Z,16.00
2022-09-12T18:39:18.243Z,16.00
2022-09-12T18:41:46.400Z,15.90
2022-09-12T18:44:14.731Z,15.80
2022-09-12T18:46:43.024Z,15.80
2022-09-12T18:49:12.082Z,15.70
2022-09-12T18:51:45.780Z,15.60
2022-09-12T18:54:18.675Z,15.60
2022-09-12T18:56:49.169Z,15.60
2022-09-12T18:59:20.158Z,15.50
2022-09-12T19:01:48.560Z,15.50
2022-09-12T19:04:16.950Z,15.40
2022-09-12T19:06:48.211Z,15.40
2022-09-12T19:09:21.666Z,15.30
2022-09-12T19:11:50.411Z,15.20
2022-09-12T19:14:22.644Z,15.20
2022-09-12T19:16:52.057Z,15.20
2022-09-12T19:19:21.154Z,15.10
2022-09-12T19:21:49.363Z,15.20
2022-09-12T19:24:21.648Z,15.10
2022-09-12T19:26:50.928Z,15.10
2022-09-12T19:29:19.510Z,15.20
2022-09-12T19:31:47.789Z,15.10
2022-09-12T19:34:16.532Z,15.10
2022-09-12T19:36:46.297Z,15.00
2022-09-12T19:39:19.745Z,15.00
2022-09-12T19:41:48.589Z,14.90
2022-09-12T19:44:19.083Z,14.80
2022-09-12T19:46:49.696Z,14.80
2022-09-12T19:49:17.752Z,14.70
2022-09-12T19:51:45.871Z,14.70
2022-09-12T19:54:14.142Z,14.70
2022-09-12T19:56:43.742Z,14.60
2022-09-12T19:59:12.640Z,14.60
2022-09-12T20:01:41.032Z,14.50
2022-09-12T20:04:09.607Z,14.50
2022-09-12T20:06:37.669Z,14.50
2022-09-12T20:09:06.154Z,14.50
2022-09-12T20:11:34.303Z,14.50
2022-09-12T20:14:04.037Z,14.50
2022-09-12T20:16:33.574Z,14.50
2022-09-12T20:19:06.947Z,14.50
2022-09-12T20:21:36.482Z,14.40
2022-09-12T20:24:07.177Z,14.40
2022-09-12T20:26:35.691Z,14.40
2022-09-12T20:29:06.796Z,14.30
2022-09-12T20:31:36.610Z,14.30
2022-09-12T20:34:05.176Z,14.40
2022-09-12T20:36:33.743Z,14.30
2022-09-12T20:39:03.546Z,14.40
2022-09-12T20:41:35.343Z,14.30
2022-09-12T20:44:04.876Z,14.30
2022-09-12T20:46:33.506Z,14.30
2022-09-12T20:49:01.612Z,14.30
2022-09-12T20:51:30.377Z,14.30
2022-09-12T20:54:00.577Z,14.30
2022-09-12T20:56:31.667Z,14.30
2022-09-12T20:59:00.297Z,14.30
2022-09-12T21:01:31.538Z,14.20
2022-09-12T21:04:01.672Z,14.20
2022-09-12T21:06:30.338Z,14.10
2022-09-12T21:08:59.851Z,14.00
2022-09-12T21:11:29.046Z,14.00
2022-09-12T21:13:57.887Z,13.90
2022-09-12T21:16:26.262Z,13.80
2022-09-12T21:18:58.090Z,13.80
2022-09-12T21:21:27.699Z,13.70
2022-09-12T21:23:59.463Z,13.70
2022-09-12T21:26:28.310Z,13.70
2022-09-12T21:28:56.394Z,13.70
2022-09-12T21:31:25.837Z,13.60
2022-09-12T21:33:55.250Z,13.60
2022-09-12T21:36:24.667Z,13.60
2022-09-12T21:38:52.732Z,13.60
2022-09-12T21:41:20.837Z,13.60
2022-09-12T21:43:49.111Z,13.60
2022-09-12T21:46:17.318Z,13.60
2022-09-12T21:48:45.306Z,13.60
2022-09-12T21:51:14.647Z,13.50
2022-09-12T21:53:43.022Z,13.50
2022-09-12T21:56:11.631Z,13.60
2022-09-12T21:58:39.821Z,13.50
2022-09-12T22:01:09.654Z,13.50
2022-09-12T22:03:37.832Z,13.50
2022-09-12T22:06:07.962Z,13.40
2022-09-12T22:08:38.787Z,13.50
2022-09-12T22:11:09.680Z,13.40
2022-09-12T22:13:39.219Z,13.40
2022-09-12T22:16:08.008Z,13.40
2022-09-12T22:18:38.092Z,13.30
2022-09-12T22:21:09.079Z,13.30
2022-09-12T22:23:55.911Z,13.30
2022-09-12T22:26:24.299Z,13.30
2022-09-12T22:28:53.244Z,13.20
2022-09-12T22:31:21.995Z,13.20
2022-09-12T22:33:50.755Z,13.10
2022-09-12T22:36:18.761Z,13.10
2022-09-12T22:38:48.174Z,13.10
2022-09-12T22:41:16.668Z,13.10
2022-09-12T22:43:44.955Z,13.10
2022-09-12T22:46:13.953Z,13.10
2022-09-12T22:48:42.795Z,13.10
2022-09-12T22:51:11.872Z,13.10
2022-09-12T22:53:40.256Z,13.00
2022-09-12T22:56:10.449Z,13.00
2022-09-12T22:58:38.827Z,12.90
2022-09-12T23:01:08.453Z,12.90
2022-09-12T23:03:37.592Z,12.90
2022-09-12T23:06:06.981Z,12.80
2022-09-12T23:08:36.931Z,12.80
2022-09-12T23:11:09.290Z,12.70
2022-09-12T23:13:39.564Z,12.70
2022-09-12T23:16:09.396Z,12.70
2022-09-12T23:18:38.018Z,12.60
2022-09-12T23:21:08.352Z,12.60
2022-09-12T23:23:37.644Z,12.60
2022-09-12T23:26:08.660Z,12.70
2022-09-12T23:28:39.075Z,12.70
2022-09-12T23:31:08.942Z,12.70
2022-09-12T23:33:37.500Z,12.70
2022-09-12T23:36:08.675Z,12.70
2022-09-12T23:38:37.250Z,12.60
2022-09-12T23:41:06.264Z,12.50
2022-09-12T23:43:35.039Z,12.50
2022-09-12T23:46:06.164Z,12.50
2022-09-12T23:48:35.749Z,12.40
2022-09-12T23:51:03.711Z,12.40
2022-09-12T23:53:32.738Z,12.40
2022-09-12T23:56:00.927Z,12.40
2022-09-12T23:58:30.974Z,12.40
